EXS3ZW EGCC-BIKF
Flight info
| Callsign | EXS3ZW |
|---|---|
| Flight time | 2h 24m |
| Altitude | 36000 |
| Route | ASMIM L975 WAL M146 LUSOD DCT GOMUP/M077F360 DCT 60N014W 61N016W DCT BREKI DCT BASLU BASLU3K |
| Aircraft | B738/M-SDE2E3FGHIRWXY/LB1 |
Departure
| Time | 2026-04-26 22:25 |
|---|---|
| Airport | Manchester Airport (EGCC) |
Arrival
| Time | 2026-04-27 00:49 |
|---|---|
| Airport | Keflavik International Airport (BIKF) |
| Time | Latitude | Longitude | Altitude | Speed | Heading |
|---|---|---|---|---|---|
| 2026-04-26 21:47 | 53.36488 | -2.27851 | 254 ft | 0 kts | 45° |
| 2026-04-26 22:15 | 53.36471 | -2.27874 | 254 ft | 4 kts | 38° |
| 2026-04-26 22:16 | 53.36455 | -2.27899 | 254 ft | 4 kts | 54° |
| 2026-04-26 22:16 | 53.36446 | -2.27936 | 254 ft | 4 kts | 97° |
| 2026-04-26 22:16 | 53.36455 | -2.27971 | 254 ft | 4 kts | 136° |
| 2026-04-26 22:16 | 53.36477 | -2.27994 | 254 ft | 4 kts | 160° |
| 2026-04-26 22:17 | 53.36495 | -2.28011 | 254 ft | 2 kts | 135° |
| 2026-04-26 22:17 | 53.36510 | -2.28036 | 254 ft | 0 kts | 135° |
| 2026-04-26 22:19 | 53.36510 | -2.28035 | 254 ft | 0 kts | 135° |
| 2026-04-26 22:19 | 53.36500 | -2.28021 | 254 ft | 6 kts | 144° |
| 2026-04-26 22:20 | 53.36442 | -2.28057 | 254 ft | 13 kts | 222° |
| 2026-04-26 22:20 | 53.36388 | -2.28137 | 254 ft | 17 kts | 220° |
| 2026-04-26 22:20 | 53.36256 | -2.28148 | 254 ft | 17 kts | 151° |
| 2026-04-26 22:20 | 53.36166 | -2.27994 | 254 ft | 20 kts | 137° |
| 2026-04-26 22:21 | 53.36045 | -2.27831 | 254 ft | 24 kts | 141° |
| 2026-04-26 22:21 | 53.35888 | -2.27732 | 254 ft | 26 kts | 182° |
| 2026-04-26 22:21 | 53.35722 | -2.27636 | 247 ft | 27 kts | 158° |
| 2026-04-26 22:21 | 53.35636 | -2.27429 | 246 ft | 23 kts | 59° |
| 2026-04-26 22:22 | 53.35733 | -2.27217 | 254 ft | 23 kts | 49° |
| 2026-04-26 22:22 | 53.35826 | -2.27010 | 254 ft | 22 kts | 57° |
| 2026-04-26 22:22 | 53.35914 | -2.26805 | 255 ft | 21 kts | 54° |
| 2026-04-26 22:22 | 53.36000 | -2.26605 | 255 ft | 22 kts | 53° |
| 2026-04-26 22:23 | 53.36095 | -2.26407 | 255 ft | 21 kts | 51° |
| 2026-04-26 22:23 | 53.36197 | -2.26227 | 254 ft | 20 kts | 38° |
| 2026-04-26 22:23 | 53.36258 | -2.26098 | 255 ft | 15 kts | 76° |
| 2026-04-26 22:23 | 53.36285 | -2.25876 | 255 ft | 24 kts | 83° |
| 2026-04-26 22:24 | 53.36199 | -2.25793 | 258 ft | 12 kts | 226° |
| 2026-04-26 22:24 | 53.36137 | -2.25922 | 258 ft | 22 kts | 232° |
| 2026-04-26 22:24 | 53.35844 | -2.26529 | 269 ft | 111 kts | 231° |
| 2026-04-26 22:24 | 53.35203 | -2.27911 | 287 ft | 185 kts | 234° |
| 2026-04-26 22:25 | 53.34314 | -2.29690 | 997 ft | 209 kts | 232° |
| 2026-04-26 22:25 | 53.33330 | -2.31627 | 1596 ft | 237 kts | 232° |
| 2026-04-26 22:25 | 53.32354 | -2.33815 | 2636 ft | 233 kts | 243° |
| 2026-04-26 22:25 | 53.31996 | -2.36390 | 3296 ft | 233 kts | 274° |
| 2026-04-26 22:26 | 53.32204 | -2.39114 | 3884 ft | 239 kts | 281° |
| 2026-04-26 22:26 | 53.32479 | -2.41934 | 4317 ft | 255 kts | 282° |
| 2026-04-26 22:26 | 53.32775 | -2.44934 | 4944 ft | 266 kts | 282° |
| 2026-04-26 22:26 | 53.33076 | -2.47987 | 5888 ft | 266 kts | 282° |
| 2026-04-26 22:27 | 53.33376 | -2.51064 | 6788 ft | 270 kts | 282° |
| 2026-04-26 22:27 | 53.33678 | -2.54180 | 7625 ft | 274 kts | 282° |
| 2026-04-26 22:27 | 53.33984 | -2.57352 | 8468 ft | 277 kts | 282° |
| 2026-04-26 22:27 | 53.34288 | -2.60530 | 9403 ft | 276 kts | 282° |
| 2026-04-26 22:28 | 53.34591 | -2.63707 | 10269 ft | 280 kts | 281° |
| 2026-04-26 22:28 | 53.34905 | -2.67000 | 10559 ft | 303 kts | 281° |
| 2026-04-26 22:28 | 53.35248 | -2.70615 | 10806 ft | 325 kts | 280° |
| 2026-04-26 22:28 | 53.35606 | -2.74411 | 11423 ft | 334 kts | 280° |
| 2026-04-26 22:29 | 53.35966 | -2.78260 | 12218 ft | 336 kts | 279° |
| 2026-04-26 22:29 | 53.36326 | -2.82125 | 13024 ft | 337 kts | 278° |
| 2026-04-26 22:29 | 53.36689 | -2.86032 | 13749 ft | 342 kts | 278° |
| 2026-04-26 22:29 | 53.36931 | -2.88653 | 14208 ft | 345 kts | 277° |
| 2026-04-26 22:30 | 53.37425 | -2.93999 | 15100 ft | 351 kts | 276° |
| 2026-04-26 22:30 | 53.37801 | -2.98075 | 15725 ft | 357 kts | 276° |
| 2026-04-26 22:30 | 53.38181 | -3.02217 | 16312 ft | 363 kts | 275° |
| 2026-04-26 22:30 | 53.38560 | -3.06376 | 16881 ft | 369 kts | 275° |
| 2026-04-26 22:31 | 53.39080 | -3.10635 | 17401 ft | 380 kts | 284° |
| 2026-04-26 22:31 | 53.40211 | -3.14701 | 17904 ft | 393 kts | 298° |
| 2026-04-26 22:31 | 53.41932 | -3.18356 | 18412 ft | 405 kts | 310° |
| 2026-04-26 22:31 | 53.43949 | -3.21710 | 18909 ft | 412 kts | 312° |
| 2026-04-26 22:32 | 53.46000 | -3.25117 | 19382 ft | 419 kts | 312° |
| 2026-04-26 22:32 | 53.48073 | -3.28601 | 19865 ft | 424 kts | 312° |
| 2026-04-26 22:32 | 53.49453 | -3.30945 | 20188 ft | 428 kts | 312° |
| 2026-04-26 22:32 | 53.51554 | -3.34537 | 20669 ft | 433 kts | 313° |
| 2026-04-26 22:33 | 53.54364 | -3.39368 | 21299 ft | 439 kts | 313° |
| 2026-04-26 22:33 | 53.58612 | -3.46893 | 22236 ft | 447 kts | 309° |
| 2026-04-26 22:33 | 53.60459 | -3.51130 | 22708 ft | 451 kts | 304° |
| 2026-04-26 22:34 | 53.61615 | -3.54034 | 23014 ft | 453 kts | 304° |
| 2026-04-26 22:34 | 53.63392 | -3.58447 | 23468 ft | 456 kts | 305° |
| 2026-04-26 22:34 | 53.65214 | -3.62836 | 23926 ft | 459 kts | 307° |
| 2026-04-26 22:34 | 53.67059 | -3.67237 | 24407 ft | 460 kts | 307° |
| 2026-04-26 22:35 | 53.68907 | -3.71654 | 24893 ft | 462 kts | 308° |
| 2026-04-26 22:35 | 53.70759 | -3.76093 | 25380 ft | 462 kts | 308° |
| 2026-04-26 22:35 | 53.73202 | -3.81968 | 26027 ft | 462 kts | 309° |
| 2026-04-26 22:35 | 53.74451 | -3.84979 | 26362 ft | 462 kts | 309° |
| 2026-04-26 22:36 | 53.76294 | -3.89429 | 26871 ft | 461 kts | 309° |
| 2026-04-26 22:36 | 53.78103 | -3.93806 | 27346 ft | 460 kts | 309° |
| 2026-04-26 22:36 | 53.79929 | -3.98231 | 27834 ft | 459 kts | 310° |
| 2026-04-26 22:36 | 53.81747 | -4.02644 | 28310 ft | 457 kts | 310° |
| 2026-04-26 22:37 | 53.83564 | -4.07059 | 28732 ft | 457 kts | 310° |
| 2026-04-26 22:37 | 53.85383 | -4.11484 | 28993 ft | 460 kts | 310° |
| 2026-04-26 22:37 | 53.87218 | -4.15954 | 29225 ft | 464 kts | 310° |
| 2026-04-26 22:37 | 53.89066 | -4.20451 | 29503 ft | 466 kts | 310° |
| 2026-04-26 22:38 | 53.90928 | -4.24954 | 29880 ft | 465 kts | 310° |
| 2026-04-26 22:38 | 53.92780 | -4.29437 | 30330 ft | 463 kts | 310° |
| 2026-04-26 22:38 | 53.94697 | -4.33778 | 30741 ft | 457 kts | 316° |
| 2026-04-26 22:38 | 53.96879 | -4.37574 | 31090 ft | 453 kts | 321° |
| 2026-04-26 22:39 | 53.99163 | -4.41254 | 31432 ft | 453 kts | 321° |
| 2026-04-26 22:39 | 54.01453 | -4.44925 | 31771 ft | 452 kts | 321° |
| 2026-04-26 22:39 | 54.03729 | -4.48601 | 32129 ft | 451 kts | 321° |
| 2026-04-26 22:39 | 54.05995 | -4.52297 | 32476 ft | 451 kts | 321° |
| 2026-04-26 22:40 | 54.08246 | -4.56001 | 32797 ft | 450 kts | 321° |
| 2026-04-26 22:40 | 54.10487 | -4.59716 | 33111 ft | 450 kts | 321° |
| 2026-04-26 22:40 | 54.12697 | -4.63397 | 33400 ft | 450 kts | 321° |
| 2026-04-26 22:40 | 54.14932 | -4.67130 | 33668 ft | 450 kts | 320° |
| 2026-04-26 22:41 | 54.17171 | -4.70878 | 33950 ft | 450 kts | 320° |
| 2026-04-26 22:41 | 54.19401 | -4.74620 | 34318 ft | 448 kts | 320° |
| 2026-04-26 22:41 | 54.21616 | -4.78344 | 34671 ft | 446 kts | 320° |
| 2026-04-26 22:41 | 54.23823 | -4.82058 | 34946 ft | 445 kts | 320° |
| 2026-04-26 22:42 | 54.26030 | -4.85776 | 35181 ft | 446 kts | 320° |
| 2026-04-26 22:42 | 54.28237 | -4.89498 | 35429 ft | 446 kts | 320° |
| 2026-04-26 22:42 | 54.30447 | -4.93231 | 35688 ft | 445 kts | 320° |
| 2026-04-26 22:43 | 54.34858 | -5.00695 | 35752 ft | 451 kts | 320° |
| 2026-04-26 22:43 | 54.39298 | -5.08243 | 35743 ft | 447 kts | 320° |
| 2026-04-26 22:44 | 54.43677 | -5.15717 | 35749 ft | 442 kts | 320° |
| 2026-04-26 22:44 | 54.48028 | -5.23156 | 35751 ft | 442 kts | 320° |
| 2026-04-26 22:45 | 54.52385 | -5.30627 | 35749 ft | 442 kts | 320° |
| 2026-04-26 22:45 | 54.56693 | -5.38039 | 35749 ft | 442 kts | 320° |
| 2026-04-26 22:46 | 54.61046 | -5.45553 | 35749 ft | 443 kts | 320° |
| 2026-04-26 22:46 | 54.65401 | -5.53095 | 35749 ft | 444 kts | 320° |
| 2026-04-26 22:47 | 54.69755 | -5.60662 | 35747 ft | 444 kts | 320° |
| 2026-04-26 22:47 | 54.74083 | -5.68207 | 35749 ft | 445 kts | 320° |
| 2026-04-26 22:48 | 54.78445 | -5.75835 | 35751 ft | 446 kts | 320° |
| 2026-04-26 22:48 | 54.82803 | -5.83482 | 35750 ft | 447 kts | 320° |
| 2026-04-26 22:49 | 54.87167 | -5.91163 | 35746 ft | 448 kts | 320° |
| 2026-04-26 22:49 | 54.91507 | -5.98829 | 35752 ft | 448 kts | 319° |
| 2026-04-26 22:50 | 54.95874 | -6.06567 | 35744 ft | 448 kts | 319° |
| 2026-04-26 22:50 | 55.00240 | -6.14329 | 35750 ft | 448 kts | 319° |
| 2026-04-26 22:51 | 55.04597 | -6.22100 | 35744 ft | 449 kts | 319° |
| 2026-04-26 22:51 | 55.08948 | -6.29888 | 35749 ft | 448 kts | 319° |
| 2026-04-26 22:52 | 55.13264 | -6.37636 | 35748 ft | 448 kts | 319° |
| 2026-04-26 22:52 | 55.17602 | -6.45452 | 35746 ft | 447 kts | 319° |
| 2026-04-26 22:53 | 55.21926 | -6.53269 | 35746 ft | 447 kts | 319° |
| 2026-04-26 22:53 | 55.26237 | -6.61086 | 35748 ft | 446 kts | 319° |
| 2026-04-26 22:54 | 55.30513 | -6.68867 | 35747 ft | 445 kts | 319° |
| 2026-04-26 22:54 | 55.34809 | -6.76708 | 35747 ft | 445 kts | 319° |
| 2026-04-26 22:55 | 55.39088 | -6.84547 | 35748 ft | 444 kts | 319° |
| 2026-04-26 22:55 | 55.43358 | -6.92394 | 35748 ft | 444 kts | 319° |
| 2026-04-26 22:56 | 55.47623 | -7.00259 | 35748 ft | 444 kts | 319° |
| 2026-04-26 22:56 | 55.51856 | -7.08089 | 35748 ft | 444 kts | 319° |
| 2026-04-26 22:57 | 55.56111 | -7.15988 | 35748 ft | 444 kts | 319° |
| 2026-04-26 22:57 | 55.60366 | -7.23912 | 35748 ft | 444 kts | 319° |
| 2026-04-26 22:58 | 55.64619 | -7.31860 | 35748 ft | 445 kts | 319° |
| 2026-04-26 22:58 | 55.68837 | -7.39771 | 35748 ft | 445 kts | 318° |
| 2026-04-26 22:59 | 55.73083 | -7.47759 | 35748 ft | 445 kts | 318° |
| 2026-04-26 22:59 | 55.77330 | -7.55776 | 35748 ft | 446 kts | 318° |
| 2026-04-26 23:00 | 55.81575 | -7.63818 | 35748 ft | 446 kts | 318° |
| 2026-04-26 23:00 | 55.85789 | -7.71829 | 35748 ft | 446 kts | 318° |
| 2026-04-26 23:01 | 55.90024 | -7.79906 | 35748 ft | 447 kts | 318° |
| 2026-04-26 23:01 | 55.94259 | -7.88012 | 35748 ft | 447 kts | 318° |
| 2026-04-26 23:02 | 55.98451 | -7.96072 | 35785 ft | 429 kts | 318° |
| 2026-04-26 23:02 | 56.00428 | -7.99899 | 35727 ft | 409 kts | 318° |
| 2026-04-26 23:02 | 56.02303 | -8.03529 | 35741 ft | 401 kts | 318° |
| 2026-04-26 23:03 | 56.06077 | -8.10811 | 35743 ft | 399 kts | 319° |
| 2026-04-26 23:03 | 56.09849 | -8.18105 | 35745 ft | 399 kts | 318° |
| 2026-04-26 23:04 | 56.13617 | -8.25425 | 35748 ft | 399 kts | 318° |
| 2026-04-26 23:04 | 56.17379 | -8.32760 | 35748 ft | 400 kts | 318° |
| 2026-04-26 23:05 | 56.21119 | -8.40078 | 35749 ft | 401 kts | 318° |
| 2026-04-26 23:05 | 56.24856 | -8.47416 | 35749 ft | 401 kts | 318° |
| 2026-04-26 23:06 | 56.28622 | -8.54831 | 35749 ft | 402 kts | 318° |
| 2026-04-26 23:06 | 56.32394 | -8.62283 | 35749 ft | 403 kts | 318° |
| 2026-04-26 23:07 | 56.36141 | -8.69708 | 35748 ft | 403 kts | 318° |
| 2026-04-26 23:07 | 56.39908 | -8.77197 | 35748 ft | 404 kts | 318° |
| 2026-04-26 23:08 | 56.43674 | -8.84709 | 35748 ft | 404 kts | 317° |
| 2026-04-26 23:08 | 56.47439 | -8.92241 | 35748 ft | 404 kts | 317° |
| 2026-04-26 23:09 | 56.51202 | -8.99794 | 35748 ft | 404 kts | 317° |
| 2026-04-26 23:09 | 56.54936 | -9.07314 | 35748 ft | 404 kts | 317° |
| 2026-04-26 23:10 | 56.58690 | -9.14896 | 35748 ft | 404 kts | 317° |
| 2026-04-26 23:10 | 56.62436 | -9.22488 | 35748 ft | 403 kts | 317° |
| 2026-04-26 23:11 | 56.66172 | -9.30083 | 35748 ft | 403 kts | 317° |
| 2026-04-26 23:11 | 56.69898 | -9.37684 | 35748 ft | 403 kts | 317° |
| 2026-04-26 23:12 | 56.73599 | -9.45256 | 35748 ft | 403 kts | 317° |
| 2026-04-26 23:12 | 56.77320 | -9.52895 | 35748 ft | 403 kts | 317° |
| 2026-04-26 23:13 | 56.81033 | -9.60542 | 35748 ft | 403 kts | 317° |
| 2026-04-26 23:13 | 56.84742 | -9.68205 | 35748 ft | 403 kts | 317° |
| 2026-04-26 23:14 | 56.88444 | -9.75880 | 35748 ft | 403 kts | 317° |
| 2026-04-26 23:14 | 56.92141 | -9.83569 | 35748 ft | 403 kts | 317° |
| 2026-04-26 23:15 | 56.95813 | -9.91228 | 35748 ft | 403 kts | 317° |
| 2026-04-26 23:15 | 56.99520 | -9.98906 | 35744 ft | 401 kts | 320° |
| 2026-04-26 23:15 | 57.01617 | -10.02166 | 35741 ft | 392 kts | 332° |
| 2026-04-26 23:16 | 57.03899 | -10.04874 | 35749 ft | 391 kts | 333° |
| 2026-04-26 23:16 | 57.08477 | -10.10279 | 35751 ft | 391 kts | 332° |
| 2026-04-26 23:17 | 57.13045 | -10.15741 | 35747 ft | 392 kts | 332° |
| 2026-04-26 23:17 | 57.17576 | -10.21215 | 35748 ft | 392 kts | 332° |
| 2026-04-26 23:18 | 57.22138 | -10.26757 | 35748 ft | 393 kts | 332° |
| 2026-04-26 23:18 | 57.26698 | -10.32319 | 35749 ft | 393 kts | 332° |
| 2026-04-26 23:19 | 57.31254 | -10.37892 | 35747 ft | 393 kts | 332° |
| 2026-04-26 23:19 | 57.35805 | -10.43476 | 35748 ft | 393 kts | 332° |
| 2026-04-26 23:20 | 57.40333 | -10.49050 | 35747 ft | 393 kts | 332° |
| 2026-04-26 23:20 | 57.44886 | -10.54670 | 35748 ft | 393 kts | 332° |
| 2026-04-26 23:21 | 57.49439 | -10.60308 | 35747 ft | 393 kts | 332° |
| 2026-04-26 23:21 | 57.53996 | -10.65967 | 35747 ft | 393 kts | 332° |
| 2026-04-26 23:22 | 57.58535 | -10.71622 | 35748 ft | 393 kts | 332° |
| 2026-04-26 23:22 | 57.63049 | -10.77262 | 35748 ft | 393 kts | 332° |
| 2026-04-26 23:23 | 57.67591 | -10.82955 | 35748 ft | 393 kts | 332° |
| 2026-04-26 23:23 | 57.72131 | -10.88663 | 35748 ft | 393 kts | 331° |
| 2026-04-26 23:24 | 57.76669 | -10.94385 | 35748 ft | 393 kts | 331° |
| 2026-04-26 23:24 | 57.81199 | -11.00115 | 35747 ft | 393 kts | 331° |
| 2026-04-26 23:25 | 57.85696 | -11.05821 | 35748 ft | 393 kts | 331° |
| 2026-04-26 23:25 | 57.90210 | -11.11567 | 35748 ft | 393 kts | 331° |
| 2026-04-26 23:26 | 57.94733 | -11.17342 | 35748 ft | 393 kts | 331° |
| 2026-04-26 23:26 | 57.99254 | -11.23132 | 35748 ft | 393 kts | 331° |
| 2026-04-26 23:27 | 58.03744 | -11.28899 | 35747 ft | 393 kts | 331° |
| 2026-04-26 23:27 | 58.08255 | -11.34712 | 35748 ft | 393 kts | 331° |
| 2026-04-26 23:28 | 58.12770 | -11.40548 | 35748 ft | 393 kts | 331° |
| 2026-04-26 23:28 | 58.17284 | -11.46402 | 35749 ft | 393 kts | 331° |
| 2026-04-26 23:29 | 58.21767 | -11.52233 | 35747 ft | 393 kts | 331° |
| 2026-04-26 23:29 | 58.26274 | -11.58114 | 35749 ft | 393 kts | 331° |
| 2026-04-26 23:30 | 58.30783 | -11.64016 | 35748 ft | 394 kts | 331° |
| 2026-04-26 23:30 | 58.35293 | -11.69938 | 35748 ft | 394 kts | 331° |
| 2026-04-26 23:31 | 58.39797 | -11.75871 | 35748 ft | 394 kts | 330° |
| 2026-04-26 23:31 | 58.44261 | -11.81770 | 35749 ft | 394 kts | 330° |
| 2026-04-26 23:32 | 58.48760 | -11.87733 | 35748 ft | 394 kts | 330° |
| 2026-04-26 23:32 | 58.53259 | -11.93717 | 35749 ft | 394 kts | 330° |
| 2026-04-26 23:33 | 58.57752 | -11.99710 | 35748 ft | 394 kts | 330° |
| 2026-04-26 23:33 | 58.62246 | -12.05724 | 35748 ft | 394 kts | 330° |
| 2026-04-26 23:34 | 58.66711 | -12.11719 | 35748 ft | 394 kts | 330° |
| 2026-04-26 23:34 | 58.71196 | -12.17760 | 35747 ft | 394 kts | 330° |
| 2026-04-26 23:35 | 58.75683 | -12.23823 | 35748 ft | 394 kts | 330° |
| 2026-04-26 23:35 | 58.80163 | -12.29896 | 35749 ft | 394 kts | 330° |
| 2026-04-26 23:36 | 58.84616 | -12.35951 | 35748 ft | 394 kts | 330° |
| 2026-04-26 23:36 | 58.89091 | -12.42057 | 35748 ft | 394 kts | 330° |
| 2026-04-26 23:37 | 58.93563 | -12.48178 | 35749 ft | 394 kts | 330° |
| 2026-04-26 23:37 | 58.98039 | -12.54324 | 35748 ft | 394 kts | 330° |
| 2026-04-26 23:38 | 59.02477 | -12.60438 | 35749 ft | 394 kts | 330° |
| 2026-04-26 23:38 | 59.06942 | -12.66610 | 35749 ft | 394 kts | 330° |
| 2026-04-26 23:39 | 59.11405 | -12.72797 | 35749 ft | 394 kts | 330° |
| 2026-04-26 23:39 | 59.15868 | -12.79006 | 35747 ft | 394 kts | 330° |
| 2026-04-26 23:40 | 59.20324 | -12.85225 | 35747 ft | 394 kts | 330° |
| 2026-04-26 23:40 | 59.24754 | -12.91429 | 35748 ft | 394 kts | 330° |
| 2026-04-26 23:41 | 59.29204 | -12.97680 | 35748 ft | 394 kts | 330° |
| 2026-04-26 23:41 | 59.33656 | -13.03955 | 35749 ft | 394 kts | 329° |
| 2026-04-26 23:42 | 59.38105 | -13.10247 | 35747 ft | 394 kts | 329° |
| 2026-04-26 23:42 | 59.44743 | -13.19673 | 35748 ft | 394 kts | 329° |
| 2026-04-26 23:43 | 59.49189 | -13.26013 | 35747 ft | 394 kts | 329° |
| 2026-04-26 23:43 | 59.53621 | -13.32352 | 35747 ft | 394 kts | 329° |
| 2026-04-26 23:44 | 59.58026 | -13.38675 | 35748 ft | 395 kts | 329° |
| 2026-04-26 23:44 | 59.62490 | -13.45105 | 35747 ft | 395 kts | 329° |
| 2026-04-26 23:45 | 59.66894 | -13.51469 | 35748 ft | 395 kts | 329° |
| 2026-04-26 23:45 | 59.71324 | -13.57891 | 35747 ft | 395 kts | 329° |
| 2026-04-26 23:46 | 59.75750 | -13.64329 | 35747 ft | 395 kts | 329° |
| 2026-04-26 23:46 | 59.80172 | -13.70785 | 35748 ft | 395 kts | 329° |
| 2026-04-26 23:47 | 59.84559 | -13.77210 | 35748 ft | 395 kts | 329° |
| 2026-04-26 23:47 | 59.88974 | -13.83698 | 35748 ft | 395 kts | 329° |
| 2026-04-26 23:48 | 59.93393 | -13.90214 | 35748 ft | 395 kts | 329° |
| 2026-04-26 23:48 | 59.97805 | -13.96739 | 35748 ft | 395 kts | 329° |
| 2026-04-26 23:49 | 60.02077 | -14.03566 | 35749 ft | 399 kts | 323° |
| 2026-04-26 23:49 | 60.06074 | -14.11293 | 35753 ft | 400 kts | 321° |
| 2026-04-26 23:50 | 60.10034 | -14.19123 | 35747 ft | 400 kts | 321° |
| 2026-04-26 23:50 | 60.14016 | -14.26917 | 35748 ft | 400 kts | 321° |
| 2026-04-26 23:51 | 60.18013 | -14.34692 | 35748 ft | 400 kts | 321° |
| 2026-04-26 23:51 | 60.21986 | -14.42421 | 35748 ft | 400 kts | 321° |
| 2026-04-26 23:52 | 60.25979 | -14.50216 | 35747 ft | 400 kts | 321° |
| 2026-04-26 23:52 | 60.29972 | -14.58037 | 35748 ft | 400 kts | 321° |
| 2026-04-26 23:53 | 60.33957 | -14.65871 | 35747 ft | 400 kts | 321° |
| 2026-04-26 23:53 | 60.37916 | -14.73684 | 35748 ft | 400 kts | 321° |
| 2026-04-26 23:54 | 60.41891 | -14.81557 | 35748 ft | 400 kts | 321° |
| 2026-04-26 23:54 | 60.45867 | -14.89458 | 35748 ft | 400 kts | 321° |
| 2026-04-26 23:55 | 60.49831 | -14.97366 | 35748 ft | 400 kts | 321° |
| 2026-04-26 23:55 | 60.53797 | -15.05306 | 35748 ft | 400 kts | 321° |
| 2026-04-26 23:56 | 60.57761 | -15.13271 | 35748 ft | 400 kts | 321° |
| 2026-04-26 23:56 | 60.61688 | -15.21191 | 35748 ft | 400 kts | 321° |
| 2026-04-26 23:57 | 60.65643 | -15.29196 | 35747 ft | 400 kts | 321° |
| 2026-04-26 23:57 | 60.69590 | -15.37213 | 35748 ft | 401 kts | 321° |
| 2026-04-26 23:58 | 60.73534 | -15.45256 | 35748 ft | 401 kts | 321° |
| 2026-04-26 23:58 | 60.77471 | -15.53311 | 35748 ft | 401 kts | 320° |
| 2026-04-26 23:59 | 60.81381 | -15.61343 | 35747 ft | 401 kts | 320° |
| 2026-04-26 23:59 | 60.85309 | -15.69442 | 35748 ft | 401 kts | 320° |
| 2026-04-27 00:00 | 60.89239 | -15.77574 | 35747 ft | 401 kts | 320° |
| 2026-04-27 00:00 | 60.93158 | -15.85714 | 35748 ft | 401 kts | 320° |
| 2026-04-27 00:01 | 60.97050 | -15.93824 | 35748 ft | 401 kts | 320° |
| 2026-04-27 00:01 | 61.00960 | -16.02016 | 35748 ft | 401 kts | 320° |
| 2026-04-27 00:02 | 61.04836 | -16.10286 | 35748 ft | 401 kts | 319° |
| 2026-04-27 00:02 | 61.08696 | -16.18586 | 35748 ft | 401 kts | 319° |
| 2026-04-27 00:03 | 61.12562 | -16.26923 | 35748 ft | 401 kts | 319° |
| 2026-04-27 00:03 | 61.16396 | -16.35216 | 35748 ft | 401 kts | 319° |
| 2026-04-27 00:04 | 61.20254 | -16.43587 | 35748 ft | 401 kts | 319° |
| 2026-04-27 00:04 | 61.24107 | -16.51977 | 35748 ft | 402 kts | 319° |
| 2026-04-27 00:05 | 61.27955 | -16.60389 | 35748 ft | 402 kts | 319° |
| 2026-04-27 00:05 | 61.31775 | -16.68773 | 35747 ft | 402 kts | 319° |
| 2026-04-27 00:06 | 61.35605 | -16.77210 | 35748 ft | 402 kts | 319° |
| 2026-04-27 00:06 | 61.39440 | -16.85690 | 35748 ft | 402 kts | 319° |
| 2026-04-27 00:07 | 61.43269 | -16.94189 | 35748 ft | 402 kts | 319° |
| 2026-04-27 00:07 | 61.47095 | -17.02715 | 35748 ft | 402 kts | 319° |
| 2026-04-27 00:08 | 61.50891 | -17.11205 | 35747 ft | 402 kts | 319° |
| 2026-04-27 00:08 | 61.54705 | -17.19769 | 35748 ft | 402 kts | 319° |
| 2026-04-27 00:09 | 61.58515 | -17.28359 | 35748 ft | 402 kts | 319° |
| 2026-04-27 00:09 | 61.62324 | -17.36978 | 35748 ft | 402 kts | 318° |
| 2026-04-27 00:10 | 61.66097 | -17.45549 | 35748 ft | 402 kts | 318° |
| 2026-04-27 00:10 | 61.69892 | -17.54202 | 35748 ft | 402 kts | 318° |
| 2026-04-27 00:11 | 61.73683 | -17.62883 | 35747 ft | 402 kts | 318° |
| 2026-04-27 00:11 | 61.77468 | -17.71581 | 35747 ft | 402 kts | 318° |
| 2026-04-27 00:12 | 61.81248 | -17.80305 | 35748 ft | 402 kts | 318° |
| 2026-04-27 00:12 | 61.85001 | -17.88997 | 35748 ft | 402 kts | 318° |
| 2026-04-27 00:13 | 61.88770 | -17.97763 | 35748 ft | 402 kts | 318° |
| 2026-04-27 00:13 | 61.92537 | -18.06558 | 35748 ft | 402 kts | 318° |
| 2026-04-27 00:14 | 61.96295 | -18.15368 | 35748 ft | 403 kts | 318° |
| 2026-04-27 00:14 | 62.00025 | -18.24146 | 35748 ft | 403 kts | 317° |
| 2026-04-27 00:15 | 62.03763 | -18.32978 | 35748 ft | 403 kts | 317° |
| 2026-04-27 00:15 | 62.07507 | -18.41859 | 35748 ft | 403 kts | 317° |
| 2026-04-27 00:16 | 62.11245 | -18.50762 | 35748 ft | 403 kts | 317° |
| 2026-04-27 00:16 | 62.14977 | -18.59685 | 35748 ft | 403 kts | 317° |
| 2026-04-27 00:17 | 62.18681 | -18.68577 | 35748 ft | 403 kts | 317° |
| 2026-04-27 00:17 | 62.22402 | -18.77544 | 35747 ft | 403 kts | 317° |
| 2026-04-27 00:18 | 62.26117 | -18.86535 | 35747 ft | 403 kts | 317° |
| 2026-04-27 00:18 | 62.29742 | -18.95363 | 35731 ft | 386 kts | 317° |
| 2026-04-27 00:19 | 62.33267 | -19.03962 | 35744 ft | 382 kts | 317° |
| 2026-04-27 00:19 | 62.36771 | -19.12531 | 35750 ft | 381 kts | 317° |
| 2026-04-27 00:20 | 62.40237 | -19.21043 | 35748 ft | 380 kts | 317° |
| 2026-04-27 00:20 | 62.43718 | -19.29632 | 35750 ft | 381 kts | 317° |
| 2026-04-27 00:21 | 62.47203 | -19.38263 | 35750 ft | 381 kts | 317° |
| 2026-04-27 00:21 | 62.50689 | -19.46927 | 35750 ft | 383 kts | 317° |
| 2026-04-27 00:22 | 62.54186 | -19.55659 | 35750 ft | 384 kts | 316° |
| 2026-04-27 00:22 | 62.57634 | -19.64448 | 35749 ft | 386 kts | 316° |
| 2026-04-27 00:23 | 62.61097 | -19.73359 | 35749 ft | 387 kts | 316° |
| 2026-04-27 00:23 | 62.64568 | -19.82321 | 35747 ft | 388 kts | 316° |
| 2026-04-27 00:24 | 62.68095 | -19.91438 | 35754 ft | 400 kts | 316° |
| 2026-04-27 00:24 | 62.71739 | -20.00891 | 35769 ft | 413 kts | 315° |
| 2026-04-27 00:25 | 62.75411 | -20.10480 | 35496 ft | 415 kts | 315° |
| 2026-04-27 00:25 | 62.77251 | -20.15309 | 35312 ft | 411 kts | 315° |
| 2026-04-27 00:25 | 62.79063 | -20.20076 | 35106 ft | 407 kts | 315° |
| 2026-04-27 00:26 | 62.80876 | -20.24846 | 34916 ft | 408 kts | 315° |
| 2026-04-27 00:26 | 62.82689 | -20.29621 | 34719 ft | 409 kts | 315° |
| 2026-04-27 00:26 | 62.84507 | -20.34417 | 34527 ft | 410 kts | 315° |
| 2026-04-27 00:26 | 62.86327 | -20.39227 | 34332 ft | 411 kts | 315° |
| 2026-04-27 00:27 | 62.88125 | -20.43993 | 34137 ft | 411 kts | 315° |
| 2026-04-27 00:27 | 62.89946 | -20.48830 | 33951 ft | 412 kts | 315° |
| 2026-04-27 00:27 | 62.91769 | -20.53685 | 33746 ft | 413 kts | 315° |
| 2026-04-27 00:27 | 62.93596 | -20.58561 | 33548 ft | 413 kts | 315° |
| 2026-04-27 00:28 | 62.95419 | -20.63436 | 33351 ft | 414 kts | 315° |
| 2026-04-27 00:28 | 62.97243 | -20.68326 | 33157 ft | 414 kts | 315° |
| 2026-04-27 00:28 | 62.99069 | -20.73230 | 32955 ft | 414 kts | 315° |
| 2026-04-27 00:28 | 63.00872 | -20.78084 | 32761 ft | 415 kts | 315° |
| 2026-04-27 00:29 | 63.02720 | -20.83068 | 32560 ft | 415 kts | 315° |
| 2026-04-27 00:29 | 63.04541 | -20.87993 | 32354 ft | 415 kts | 315° |
| 2026-04-27 00:29 | 63.06339 | -20.92864 | 32167 ft | 415 kts | 314° |
| 2026-04-27 00:29 | 63.08158 | -20.97804 | 31969 ft | 415 kts | 314° |
| 2026-04-27 00:30 | 63.09979 | -21.02760 | 31771 ft | 415 kts | 314° |
| 2026-04-27 00:30 | 63.11797 | -21.07718 | 31570 ft | 415 kts | 314° |
| 2026-04-27 00:30 | 63.13614 | -21.12684 | 31375 ft | 415 kts | 314° |
| 2026-04-27 00:30 | 63.15428 | -21.17650 | 31177 ft | 416 kts | 314° |
| 2026-04-27 00:31 | 63.17251 | -21.22650 | 30831 ft | 419 kts | 314° |
| 2026-04-27 00:31 | 63.19182 | -21.27395 | 30402 ft | 409 kts | 326° |
| 2026-04-27 00:31 | 63.21593 | -21.30450 | 29883 ft | 396 kts | 342° |
| 2026-04-27 00:31 | 63.24125 | -21.32897 | 29373 ft | 398 kts | 340° |
| 2026-04-27 00:32 | 63.26583 | -21.35560 | 28856 ft | 399 kts | 338° |
| 2026-04-27 00:32 | 63.29061 | -21.38339 | 28331 ft | 399 kts | 338° |
| 2026-04-27 00:32 | 63.31532 | -21.41135 | 27804 ft | 399 kts | 338° |
| 2026-04-27 00:32 | 63.34040 | -21.43964 | 27289 ft | 409 kts | 338° |
| 2026-04-27 00:33 | 63.36614 | -21.46855 | 26771 ft | 419 kts | 338° |
| 2026-04-27 00:33 | 63.39240 | -21.49803 | 26250 ft | 427 kts | 338° |
| 2026-04-27 00:33 | 63.41904 | -21.52797 | 25723 ft | 431 kts | 338° |
| 2026-04-27 00:33 | 63.44593 | -21.55823 | 25200 ft | 435 kts | 338° |
| 2026-04-27 00:34 | 63.47305 | -21.58877 | 24660 ft | 434 kts | 337° |
| 2026-04-27 00:34 | 63.49963 | -21.61885 | 24096 ft | 423 kts | 337° |
| 2026-04-27 00:34 | 63.52559 | -21.64832 | 23533 ft | 413 kts | 336° |
| 2026-04-27 00:34 | 63.55062 | -21.67676 | 22985 ft | 405 kts | 336° |
| 2026-04-27 00:35 | 63.57555 | -21.70511 | 22432 ft | 398 kts | 335° |
| 2026-04-27 00:35 | 63.60010 | -21.73306 | 21881 ft | 393 kts | 334° |
| 2026-04-27 00:35 | 63.62431 | -21.76066 | 21305 ft | 388 kts | 334° |
| 2026-04-27 00:35 | 63.64832 | -21.78808 | 20707 ft | 385 kts | 333° |
| 2026-04-27 00:36 | 63.67207 | -21.81527 | 20108 ft | 382 kts | 332° |
| 2026-04-27 00:36 | 63.69566 | -21.84234 | 19527 ft | 379 kts | 331° |
| 2026-04-27 00:36 | 63.71904 | -21.86922 | 18925 ft | 375 kts | 330° |
| 2026-04-27 00:36 | 63.74179 | -21.89543 | 18326 ft | 371 kts | 330° |
| 2026-04-27 00:37 | 63.76468 | -21.92184 | 17708 ft | 367 kts | 329° |
| 2026-04-27 00:37 | 63.78729 | -21.94798 | 17089 ft | 363 kts | 329° |
| 2026-04-27 00:37 | 63.80966 | -21.97351 | 16466 ft | 359 kts | 332° |
| 2026-04-27 00:37 | 63.83315 | -21.99245 | 15841 ft | 357 kts | 339° |
| 2026-04-27 00:38 | 63.85664 | -22.00886 | 15340 ft | 348 kts | 339° |
| 2026-04-27 00:38 | 63.87930 | -22.02484 | 14942 ft | 337 kts | 339° |
| 2026-04-27 00:38 | 63.90139 | -22.04047 | 14530 ft | 327 kts | 339° |
| 2026-04-27 00:38 | 63.92252 | -22.05545 | 14129 ft | 318 kts | 339° |
| 2026-04-27 00:39 | 63.94334 | -22.07033 | 13704 ft | 310 kts | 339° |
| 2026-04-27 00:39 | 63.96363 | -22.08500 | 13279 ft | 303 kts | 339° |
| 2026-04-27 00:39 | 63.98353 | -22.09943 | 12853 ft | 296 kts | 339° |
| 2026-04-27 00:39 | 64.00294 | -22.11361 | 12428 ft | 290 kts | 339° |
| 2026-04-27 00:40 | 64.02195 | -22.12765 | 12003 ft | 285 kts | 339° |
| 2026-04-27 00:40 | 64.04066 | -22.14167 | 11576 ft | 280 kts | 339° |
| 2026-04-27 00:40 | 64.05894 | -22.15560 | 11149 ft | 275 kts | 339° |
| 2026-04-27 00:40 | 64.07690 | -22.16959 | 10656 ft | 273 kts | 339° |
| 2026-04-27 00:41 | 64.09474 | -22.18393 | 10166 ft | 269 kts | 339° |
| 2026-04-27 00:41 | 64.11220 | -22.19836 | 9664 ft | 267 kts | 339° |
| 2026-04-27 00:41 | 64.12936 | -22.21299 | 9140 ft | 266 kts | 339° |
| 2026-04-27 00:41 | 64.14650 | -22.22804 | 8596 ft | 259 kts | 339° |
| 2026-04-27 00:42 | 64.16302 | -22.24298 | 8064 ft | 252 kts | 339° |
| 2026-04-27 00:42 | 64.17900 | -22.25778 | 7562 ft | 244 kts | 338° |
| 2026-04-27 00:42 | 64.19437 | -22.27331 | 7026 ft | 239 kts | 330° |
| 2026-04-27 00:42 | 64.20523 | -22.30167 | 6465 ft | 245 kts | 293° |
| 2026-04-27 00:43 | 64.20620 | -22.34071 | 5978 ft | 251 kts | 261° |
| 2026-04-27 00:43 | 64.20050 | -22.37812 | 5481 ft | 254 kts | 246° |
| 2026-04-27 00:43 | 64.19162 | -22.41321 | 4953 ft | 254 kts | 248° |
| 2026-04-27 00:43 | 64.18848 | -22.45188 | 4498 ft | 244 kts | 277° |
| 2026-04-27 00:44 | 64.18994 | -22.49021 | 4081 ft | 241 kts | 272° |
| 2026-04-27 00:44 | 64.18889 | -22.52840 | 3659 ft | 238 kts | 269° |
| 2026-04-27 00:44 | 64.18394 | -22.56424 | 3187 ft | 242 kts | 238° |
| 2026-04-27 00:44 | 64.17139 | -22.59028 | 2422 ft | 251 kts | 210° |
| 2026-04-27 00:45 | 64.15516 | -22.60150 | 2064 ft | 237 kts | 186° |
| 2026-04-27 00:45 | 64.13944 | -22.60396 | 1982 ft | 218 kts | 181° |
| 2026-04-27 00:45 | 64.12465 | -22.60258 | 1851 ft | 207 kts | 178° |
| 2026-04-27 00:45 | 64.11067 | -22.60161 | 1732 ft | 191 kts | 182° |
| 2026-04-27 00:46 | 64.09899 | -22.60364 | 1896 ft | 150 kts | 188° |
| 2026-04-27 00:46 | 64.08822 | -22.60505 | 1728 ft | 166 kts | 181° |
| 2026-04-27 00:46 | 64.07670 | -22.60455 | 1597 ft | 167 kts | 179° |
| 2026-04-27 00:46 | 64.06496 | -22.60427 | 1424 ft | 168 kts | 183° |
| 2026-04-27 00:47 | 64.05323 | -22.60482 | 1154 ft | 172 kts | 181° |
| 2026-04-27 00:47 | 64.04119 | -22.60481 | 942 ft | 170 kts | 181° |
| 2026-04-27 00:47 | 64.02956 | -22.60450 | 820 ft | 166 kts | 180° |
| 2026-04-27 00:47 | 64.01808 | -22.60521 | 747 ft | 163 kts | 184° |
| 2026-04-27 00:48 | 64.00675 | -22.60582 | 548 ft | 169 kts | 180° |
| 2026-04-27 00:48 | 63.99486 | -22.60535 | 279 ft | 164 kts | 181° |
| 2026-04-27 00:48 | 63.98427 | -22.60554 | 173 ft | 143 kts | 180° |
| 2026-04-27 00:48 | 63.97555 | -22.60541 | 173 ft | 91 kts | 178° |
| 2026-04-27 00:49 | 63.97090 | -22.60547 | 161 ft | 62 kts | 181° |
| 2026-04-27 00:49 | 63.96755 | -22.60546 | 154 ft | 43 kts | 178° |
| 2026-04-27 00:49 | 63.96526 | -22.60552 | 146 ft | 22 kts | 190° |
| 2026-04-27 00:49 | 63.96461 | -22.60838 | 136 ft | 24 kts | 277° |
| 2026-04-27 00:50 | 63.96562 | -22.60916 | 135 ft | 14 kts | 350° |
| 2026-04-27 00:50 | 63.96752 | -22.60942 | 140 ft | 13 kts | 359° |
| 2026-04-27 00:50 | 63.96840 | -22.60944 | 143 ft | 13 kts | 359° |
| 2026-04-27 00:51 | 63.96927 | -22.60944 | 147 ft | 12 kts | 0° |
| 2026-04-27 00:51 | 63.97010 | -22.60943 | 150 ft | 8 kts | 0° |
| 2026-04-27 00:51 | 63.97067 | -22.60942 | 152 ft | 8 kts | 0° |
| 2026-04-27 00:51 | 63.97121 | -22.60941 | 154 ft | 6 kts | 0° |
| 2026-04-27 00:52 | 63.97163 | -22.60940 | 155 ft | 6 kts | 0° |
| 2026-04-27 00:52 | 63.97184 | -22.60940 | 156 ft | 0 kts | 0° |
| 2026-04-27 00:52 | 63.97187 | -22.60940 | 156 ft | 3 kts | 0° |
| 2026-04-27 00:52 | 63.97253 | -22.60940 | 159 ft | 18 kts | 0° |
| 2026-04-27 00:53 | 63.97376 | -22.60940 | 162 ft | 11 kts | 360° |
| 2026-04-27 00:53 | 63.97388 | -22.60940 | 163 ft | 1 kts | 360° |
| 2026-04-27 00:53 | 63.97425 | -22.60941 | 164 ft | 9 kts | 360° |
| 2026-04-27 00:53 | 63.97489 | -22.60941 | 165 ft | 9 kts | 359° |
| 2026-04-27 00:54 | 63.97553 | -22.60942 | 166 ft | 9 kts | 360° |
| 2026-04-27 00:54 | 63.97636 | -22.60940 | 167 ft | 14 kts | 359° |
| 2026-04-27 00:54 | 63.97749 | -22.60945 | 168 ft | 20 kts | 0° |
| 2026-04-27 00:54 | 63.97888 | -22.60945 | 168 ft | 20 kts | 360° |
| 2026-04-27 00:55 | 63.97979 | -22.60945 | 168 ft | 21 kts | 359° |
| 2026-04-27 00:55 | 63.98190 | -22.60936 | 164 ft | 25 kts | 1° |
| 2026-04-27 00:55 | 63.98309 | -22.60933 | 164 ft | 25 kts | 359° |
| 2026-04-27 00:55 | 63.98530 | -22.60941 | 165 ft | 23 kts | 0° |
| 2026-04-27 00:56 | 63.98691 | -22.60940 | 162 ft | 24 kts | 360° |
| 2026-04-27 00:56 | 63.98853 | -22.60939 | 163 ft | 23 kts | 1° |
| 2026-04-27 00:56 | 63.99010 | -22.60935 | 166 ft | 22 kts | 0° |
| 2026-04-27 00:56 | 63.99152 | -22.60972 | 160 ft | 20 kts | 314° |
| 2026-04-27 00:57 | 63.99174 | -22.61158 | 155 ft | 16 kts | 270° |
| 2026-04-27 00:57 | 63.99175 | -22.61406 | 150 ft | 16 kts | 270° |
| 2026-04-27 00:57 | 63.99176 | -22.61669 | 144 ft | 15 kts | 270° |
| 2026-04-27 00:57 | 63.99174 | -22.61954 | 139 ft | 13 kts | 269° |
| 2026-04-27 00:58 | 63.99173 | -22.62096 | 139 ft | 14 kts | 269° |
| 2026-04-27 00:58 | 63.99171 | -22.62334 | 139 ft | 15 kts | 269° |
| 2026-04-27 00:58 | 63.99171 | -22.62583 | 139 ft | 9 kts | 270° |
| 2026-04-27 00:58 | 63.99183 | -22.62668 | 139 ft | 9 kts | 321° |
| 2026-04-27 00:59 | 63.99241 | -22.62701 | 139 ft | 8 kts | 333° |
| 2026-04-27 00:59 | 63.99293 | -22.62747 | 139 ft | 8 kts | 349° |
| 2026-04-27 00:59 | 63.99347 | -22.62740 | 139 ft | 8 kts | 7° |
| 2026-04-27 00:59 | 63.99398 | -22.62710 | 139 ft | 7 kts | 31° |
| 2026-04-27 01:00 | 63.99392 | -22.62614 | 139 ft | 7 kts | 141° |
| 2026-04-27 01:00 | 63.99372 | -22.62546 | 139 ft | 0 kts | 116° |
| 2026-04-27 01:17 | 63.99372 | -22.62547 | 139 ft | 0 kts | 116° |
| 2026-04-27 01:29 | 63.99373 | -22.62550 | 139 ft | 2 kts | 116° |
| 2026-04-27 01:29 | 63.99385 | -22.62601 | 139 ft | 4 kts | 126° |
| 2026-04-27 01:29 | 63.99403 | -22.62647 | 139 ft | 4 kts | 143° |
| 2026-04-27 01:29 | 63.99425 | -22.62672 | 139 ft | 4 kts | 182° |
| 2026-04-27 01:30 | 63.99438 | -22.62666 | 139 ft | 1 kts | 204° |
| 2026-04-27 01:30 | 63.99439 | -22.62665 | 139 ft | 1 kts | 204° |
| 2026-04-27 01:31 | 63.99438 | -22.62667 | 139 ft | 2 kts | 204° |
| 2026-04-27 01:31 | 63.99395 | -22.62711 | 139 ft | 11 kts | 204° |
| 2026-04-27 01:32 | 63.99313 | -22.62755 | 139 ft | 12 kts | 173° |
| 2026-04-27 01:32 | 63.99233 | -22.62698 | 139 ft | 12 kts | 153° |
| 2026-04-27 01:32 | 63.99174 | -22.62562 | 139 ft | 15 kts | 97° |
| 2026-04-27 01:32 | 63.99172 | -22.62322 | 139 ft | 15 kts | 91° |
| 2026-04-27 01:33 | 63.99170 | -22.62084 | 139 ft | 15 kts | 91° |
| 2026-04-27 01:33 | 63.99172 | -22.61853 | 140 ft | 14 kts | 89° |
| 2026-04-27 01:33 | 63.99174 | -22.61634 | 145 ft | 14 kts | 89° |
| 2026-04-27 01:33 | 63.99174 | -22.61423 | 150 ft | 13 kts | 91° |
| 2026-04-27 01:34 | 63.99172 | -22.61221 | 154 ft | 13 kts | 92° |
| 2026-04-27 01:34 | 63.99171 | -22.61064 | 157 ft | 0 kts | 88° |
| 2026-04-27 01:35 | 63.99172 | -22.60994 | 159 ft | 7 kts | 89° |
| 2026-04-27 01:35 | 63.99173 | -22.60890 | 161 ft | 5 kts | 89° |
| 2026-04-27 01:35 | 63.99173 | -22.60809 | 163 ft | 5 kts | 89° |
| 2026-04-27 01:36 | 63.99173 | -22.60767 | 164 ft | 0 kts | 89° |
| 2026-04-27 01:37 | 63.99174 | -22.60766 | 164 ft | 1 kts | 89° |
| 2026-04-27 01:37 | 63.99174 | -22.60719 | 166 ft | 4 kts | 89° |
| 2026-04-27 01:37 | 63.99171 | -22.60615 | 170 ft | 8 kts | 108° |
| 2026-04-27 01:37 | 63.99119 | -22.60542 | 172 ft | 6 kts | 176° |
| 2026-04-27 01:38 | 63.99114 | -22.60542 | 173 ft | 0 kts | 176° |
| 2026-04-27 01:38 | 63.99113 | -22.60541 | 173 ft | 3 kts | 176° |
| 2026-04-27 01:38 | 63.98772 | -22.60542 | 170 ft | 95 kts | 180° |
| 2026-04-27 01:39 | 63.97831 | -22.60529 | 182 ft | 173 kts | 179° |
| 2026-04-27 01:39 | 63.96582 | -22.60715 | 1043 ft | 188 kts | 187° |
| 2026-04-27 01:39 | 63.95293 | -22.61060 | 2216 ft | 184 kts | 177° |
| 2026-04-27 01:39 | 63.93979 | -22.60827 | 3106 ft | 195 kts | 176° |
| 2026-04-27 01:40 | 63.92595 | -22.60717 | 4092 ft | 203 kts | 178° |
| 2026-04-27 01:40 | 63.91183 | -22.60646 | 5160 ft | 204 kts | 181° |
| 2026-04-27 01:40 | 63.89805 | -22.61579 | 6039 ft | 218 kts | 216° |
| 2026-04-27 01:40 | 63.88724 | -22.64132 | 6882 ft | 229 kts | 221° |
| 2026-04-27 01:41 | 63.87690 | -22.66956 | 7799 ft | 240 kts | 236° |
| 2026-04-27 01:41 | 63.87041 | -22.70549 | 8564 ft | 257 kts | 244° |
| 2026-04-27 01:41 | 63.86368 | -22.74468 | 9347 ft | 272 kts | 243° |
| 2026-04-27 01:41 | 63.85664 | -22.78430 | 10554 ft | 272 kts | 244° |
| 2026-04-27 01:42 | 63.84929 | -22.82492 | 11232 ft | 292 kts | 243° |
| 2026-04-27 01:42 | 63.84077 | -22.86866 | 11916 ft | 309 kts | 242° |
| 2026-04-27 01:42 | 63.83251 | -22.91216 | 12929 ft | 312 kts | 243° |
| 2026-04-27 01:42 | 63.82399 | -22.95744 | 13959 ft | 315 kts | 243° |
| 2026-04-27 01:43 | 63.81236 | -22.99903 | 14841 ft | 314 kts | 221° |
| 2026-04-27 01:43 | 63.79345 | -23.02343 | 15694 ft | 319 kts | 198° |
| 2026-04-27 01:43 | 63.77127 | -23.02994 | 16554 ft | 326 kts | 181° |
| 2026-04-27 01:43 | 63.74865 | -23.02119 | 17388 ft | 337 kts | 166° |
| 2026-04-27 01:44 | 63.72764 | -22.99540 | 18059 ft | 355 kts | 147° |
| 2026-04-27 01:44 | 63.70883 | -22.95839 | 18776 ft | 362 kts | 144° |
| 2026-04-27 01:44 | 63.69005 | -22.91973 | 19422 ft | 368 kts | 143° |
| 2026-04-27 01:44 | 63.67135 | -22.88068 | 20014 ft | 374 kts | 143° |
| 2026-04-27 01:45 | 63.65216 | -22.84058 | 20659 ft | 379 kts | 144° |
| 2026-04-27 01:45 | 63.63265 | -22.80004 | 21257 ft | 383 kts | 144° |
| 2026-04-27 01:45 | 63.61287 | -22.75921 | 21792 ft | 389 kts | 144° |
| 2026-04-27 01:45 | 63.59277 | -22.71796 | 22345 ft | 394 kts | 145° |
| 2026-04-27 01:46 | 63.57242 | -22.67637 | 22846 ft | 399 kts | 145° |
| 2026-04-27 01:46 | 63.55181 | -22.63441 | 23375 ft | 402 kts | 145° |
| 2026-04-27 01:46 | 63.53098 | -22.59208 | 23881 ft | 406 kts | 146° |
| 2026-04-27 01:46 | 63.50990 | -22.54938 | 24311 ft | 412 kts | 146° |
| 2026-04-27 01:47 | 63.48879 | -22.50674 | 24777 ft | 415 kts | 146° |
| 2026-04-27 01:47 | 63.46728 | -22.46331 | 25257 ft | 418 kts | 146° |
| 2026-04-27 01:47 | 63.44563 | -22.41973 | 25717 ft | 421 kts | 146° |
| 2026-04-27 01:47 | 63.42344 | -22.37516 | 26178 ft | 424 kts | 147° |
| 2026-04-27 01:48 | 63.40176 | -22.33173 | 26559 ft | 427 kts | 147° |
| 2026-04-27 01:48 | 63.37954 | -22.28731 | 26935 ft | 431 kts | 147° |
| 2026-04-27 01:48 | 63.35709 | -22.24252 | 27326 ft | 434 kts | 147° |
| 2026-04-27 01:48 | 63.33457 | -22.19765 | 27721 ft | 436 kts | 147° |
| 2026-04-27 01:49 | 63.31190 | -22.15258 | 28118 ft | 438 kts | 148° |
| 2026-04-27 01:49 | 63.28915 | -22.10744 | 28475 ft | 440 kts | 148° |
| 2026-04-27 01:49 | 63.26622 | -22.06208 | 28803 ft | 443 kts | 148° |
| 2026-04-27 01:49 | 63.24311 | -22.01648 | 29094 ft | 446 kts | 148° |
| 2026-04-27 01:50 | 63.21981 | -21.97061 | 29378 ft | 450 kts | 148° |
| 2026-04-27 01:50 | 63.19630 | -21.92443 | 29594 ft | 455 kts | 148° |
| 2026-04-27 01:50 | 63.17285 | -21.87839 | 29814 ft | 459 kts | 148° |
| 2026-04-27 01:50 | 63.14886 | -21.83132 | 30164 ft | 460 kts | 148° |
| 2026-04-27 01:51 | 63.12492 | -21.78444 | 30468 ft | 462 kts | 148° |
| 2026-04-27 01:51 | 63.10075 | -21.73736 | 30697 ft | 465 kts | 148° |
| 2026-04-27 01:51 | 63.07642 | -21.68992 | 30919 ft | 469 kts | 147° |
| 2026-04-27 01:51 | 63.05321 | -21.63804 | 31141 ft | 479 kts | 141° |
| 2026-04-27 01:52 | 63.03109 | -21.58285 | 31404 ft | 483 kts | 140° |
| 2026-04-27 01:52 | 63.00905 | -21.52678 | 31619 ft | 486 kts | 139° |
| 2026-04-27 01:52 | 62.98697 | -21.47062 | 31822 ft | 488 kts | 139° |
| 2026-04-27 01:52 | 62.96492 | -21.41501 | 32067 ft | 489 kts | 140° |
| 2026-04-27 01:53 | 62.94248 | -21.35894 | 32380 ft | 488 kts | 140° |
| 2026-04-27 01:53 | 62.92001 | -21.30327 | 32695 ft | 487 kts | 140° |
| 2026-04-27 01:53 | 62.89743 | -21.24775 | 32954 ft | 488 kts | 140° |
| 2026-04-27 01:53 | 62.87469 | -21.19211 | 33220 ft | 489 kts | 140° |
| 2026-04-27 01:54 | 62.85208 | -21.13698 | 33531 ft | 488 kts | 140° |
| 2026-04-27 01:54 | 62.82939 | -21.08179 | 33785 ft | 488 kts | 140° |
| 2026-04-27 01:54 | 62.80663 | -21.02655 | 33986 ft | 490 kts | 140° |
| 2026-04-27 01:54 | 62.78382 | -20.97132 | 34236 ft | 490 kts | 140° |
| 2026-04-27 01:55 | 62.76104 | -20.91621 | 34530 ft | 488 kts | 140° |
| 2026-04-27 01:55 | 62.73830 | -20.86131 | 34842 ft | 487 kts | 140° |
| 2026-04-27 01:55 | 62.71590 | -20.80738 | 35121 ft | 485 kts | 140° |
| 2026-04-27 01:55 | 62.69324 | -20.75299 | 35336 ft | 486 kts | 140° |
| 2026-04-27 01:56 | 62.64781 | -20.64436 | 35860 ft | 483 kts | 139° |
| 2026-04-27 01:56 | 62.62517 | -20.59041 | 36090 ft | 483 kts | 139° |
| 2026-04-27 01:56 | 62.60244 | -20.53641 | 36326 ft | 482 kts | 139° |
| 2026-04-27 01:57 | 62.57983 | -20.48281 | 36523 ft | 482 kts | 139° |
| 2026-04-27 01:57 | 62.55721 | -20.42953 | 36753 ft | 480 kts | 139° |
| 2026-04-27 01:57 | 62.53460 | -20.37654 | 36983 ft | 479 kts | 138° |
| 2026-04-27 01:57 | 62.51220 | -20.32373 | 36938 ft | 485 kts | 138° |
| 2026-04-27 01:58 | 62.46601 | -20.21545 | 36951 ft | 493 kts | 138° |
| 2026-04-27 01:58 | 62.41957 | -20.10536 | 36948 ft | 498 kts | 138° |
| 2026-04-27 01:59 | 62.37199 | -19.99589 | 36955 ft | 501 kts | 140° |
| 2026-04-27 01:59 | 62.32089 | -19.89555 | 36965 ft | 501 kts | 144° |
| 2026-04-27 02:00 | 62.26825 | -19.79702 | 36956 ft | 502 kts | 144° |
| 2026-04-27 02:00 | 62.21566 | -19.69840 | 36951 ft | 503 kts | 144° |
| 2026-04-27 02:01 | 62.16325 | -19.59941 | 36955 ft | 501 kts | 145° |
| 2026-04-27 02:01 | 62.11045 | -19.50128 | 36954 ft | 504 kts | 144° |
| 2026-04-27 02:02 | 62.05864 | -19.40219 | 36959 ft | 503 kts | 143° |
| 2026-04-27 02:02 | 62.00604 | -19.30384 | 36952 ft | 505 kts | 144° |
| 2026-04-27 02:03 | 61.95299 | -19.20586 | 36955 ft | 506 kts | 144° |
| 2026-04-27 02:03 | 61.89985 | -19.10785 | 36967 ft | 507 kts | 144° |
| 2026-04-27 02:04 | 61.84686 | -19.01031 | 36962 ft | 508 kts | 144° |
| 2026-04-27 02:04 | 61.79354 | -18.91267 | 36980 ft | 508 kts | 144° |
| 2026-04-27 02:05 | 61.73998 | -18.81502 | 36973 ft | 508 kts | 144° |
| 2026-04-27 02:05 | 61.68633 | -18.71774 | 36968 ft | 509 kts | 144° |
| 2026-04-27 02:06 | 61.63257 | -18.62073 | 36981 ft | 510 kts | 144° |
| 2026-04-27 02:06 | 61.57899 | -18.52430 | 36978 ft | 510 kts | 144° |
| 2026-04-27 02:07 | 61.52506 | -18.42796 | 36986 ft | 510 kts | 144° |
| 2026-04-27 02:07 | 61.47579 | -18.32029 | 36990 ft | 517 kts | 129° |
| 2026-04-27 02:08 | 61.43382 | -18.19789 | 36985 ft | 518 kts | 129° |
| 2026-04-27 02:08 | 61.39166 | -18.07721 | 36989 ft | 518 kts | 129° |
| 2026-04-27 02:09 | 61.34881 | -17.95663 | 37007 ft | 518 kts | 129° |
| 2026-04-27 02:09 | 61.30576 | -17.83672 | 37077 ft | 517 kts | 129° |
| 2026-04-27 02:10 | 61.26258 | -17.71692 | 37086 ft | 518 kts | 129° |
| 2026-04-27 02:10 | 61.21927 | -17.59711 | 37081 ft | 519 kts | 129° |
| 2026-04-27 02:11 | 61.17610 | -17.47854 | 37079 ft | 520 kts | 130° |
| 2026-04-27 02:11 | 61.13251 | -17.35930 | 37106 ft | 519 kts | 130° |
| 2026-04-27 02:12 | 61.08891 | -17.24051 | 37096 ft | 520 kts | 129° |
| 2026-04-27 02:12 | 61.04494 | -17.12137 | 37093 ft | 522 kts | 130° |
| 2026-04-27 02:13 | 61.00089 | -17.00337 | 37091 ft | 522 kts | 131° |
| 2026-04-27 02:13 | 60.95115 | -16.89507 | 37100 ft | 521 kts | 138° |
| 2026-04-27 02:14 | 60.89968 | -16.79025 | 37099 ft | 522 kts | 138° |
| 2026-04-27 02:14 | 60.84818 | -16.68519 | 37099 ft | 522 kts | 138° |
| 2026-04-27 02:15 | 60.79688 | -16.57992 | 37103 ft | 523 kts | 138° |
| 2026-04-27 02:15 | 60.74585 | -16.47511 | 37100 ft | 523 kts | 137° |
| 2026-04-27 02:16 | 60.69440 | -16.36983 | 37105 ft | 523 kts | 138° |
| 2026-04-27 02:16 | 60.64286 | -16.26517 | 37104 ft | 524 kts | 138° |
| 2026-04-27 02:17 | 60.59119 | -16.16093 | 37116 ft | 522 kts | 138° |
| 2026-04-27 02:17 | 60.53943 | -16.05688 | 37113 ft | 523 kts | 138° |
| 2026-04-27 02:18 | 60.48795 | -15.95393 | 37117 ft | 523 kts | 138° |
| 2026-04-27 02:18 | 60.43594 | -15.85041 | 37119 ft | 524 kts | 138° |
| 2026-04-27 02:19 | 60.38388 | -15.74709 | 37122 ft | 524 kts | 138° |
| 2026-04-27 02:19 | 60.33175 | -15.64410 | 37120 ft | 524 kts | 138° |
| 2026-04-27 02:20 | 60.27985 | -15.54214 | 37128 ft | 524 kts | 138° |
| 2026-04-27 02:20 | 60.22751 | -15.43991 | 37131 ft | 525 kts | 138° |
| 2026-04-27 02:21 | 60.17513 | -15.33795 | 37127 ft | 525 kts | 138° |
| 2026-04-27 02:21 | 60.12262 | -15.23612 | 37139 ft | 525 kts | 138° |
| 2026-04-27 02:22 | 60.07039 | -15.13528 | 37138 ft | 526 kts | 138° |
| 2026-04-27 02:22 | 60.01758 | -15.03384 | 37134 ft | 526 kts | 138° |
| 2026-04-27 02:23 | 59.96461 | -14.93334 | 37143 ft | 526 kts | 139° |
| 2026-04-27 02:23 | 59.91100 | -14.83373 | 37145 ft | 527 kts | 139° |
| 2026-04-27 02:24 | 59.85732 | -14.73431 | 37149 ft | 528 kts | 139° |
| 2026-04-27 02:24 | 59.80383 | -14.63560 | 37152 ft | 528 kts | 139° |
| 2026-04-27 02:25 | 59.74996 | -14.53640 | 37161 ft | 529 kts | 139° |
| 2026-04-27 02:25 | 59.69603 | -14.43754 | 37158 ft | 528 kts | 139° |
| 2026-04-27 02:26 | 59.64200 | -14.33876 | 37161 ft | 529 kts | 139° |
| 2026-04-27 02:26 | 59.58776 | -14.24020 | 37207 ft | 530 kts | 139° |
| 2026-04-27 02:27 | 59.53376 | -14.14257 | 37207 ft | 530 kts | 139° |
| 2026-04-27 02:27 | 59.47942 | -14.04465 | 37219 ft | 530 kts | 139° |
| 2026-04-27 02:28 | 59.42495 | -13.94695 | 37219 ft | 530 kts | 139° |
| 2026-04-27 02:28 | 59.37034 | -13.84950 | 37219 ft | 530 kts | 139° |
| 2026-04-27 02:29 | 59.31578 | -13.75240 | 37222 ft | 531 kts | 139° |
| 2026-04-27 02:29 | 59.26136 | -13.65636 | 37220 ft | 530 kts | 140° |
| 2026-04-27 02:30 | 59.20658 | -13.55995 | 37217 ft | 530 kts | 139° |
| 2026-04-27 02:30 | 59.15180 | -13.46393 | 37231 ft | 530 kts | 140° |
| 2026-04-27 02:31 | 59.09703 | -13.36841 | 37232 ft | 530 kts | 140° |
| 2026-04-27 02:31 | 59.04219 | -13.27307 | 37227 ft | 529 kts | 140° |
| 2026-04-27 02:32 | 58.98763 | -13.17869 | 37229 ft | 529 kts | 140° |
| 2026-04-27 02:32 | 58.93284 | -13.08441 | 37233 ft | 529 kts | 140° |
| 2026-04-27 02:33 | 58.87777 | -12.99008 | 37230 ft | 529 kts | 140° |
| 2026-04-27 02:33 | 58.82310 | -12.89676 | 37223 ft | 514 kts | 140° |
| 2026-04-27 02:34 | 58.79706 | -12.85262 | 37210 ft | 498 kts | 140° |
| 2026-04-27 02:34 | 58.77149 | -12.80918 | 37219 ft | 483 kts | 140° |
| 2026-04-27 02:34 | 58.74659 | -12.76694 | 37220 ft | 470 kts | 140° |
| 2026-04-27 02:34 | 58.72236 | -12.72605 | 37222 ft | 461 kts | 140° |
| 2026-04-27 02:35 | 58.69849 | -12.68602 | 37217 ft | 448 kts | 140° |
| 2026-04-27 02:35 | 58.67540 | -12.64708 | 37216 ft | 435 kts | 140° |
| 2026-04-27 02:35 | 58.63051 | -12.57148 | 37263 ft | 433 kts | 141° |
| 2026-04-27 02:36 | 58.58474 | -12.49476 | 37273 ft | 446 kts | 140° |
| 2026-04-27 02:36 | 58.53715 | -12.41547 | 37266 ft | 460 kts | 140° |
| 2026-04-27 02:37 | 58.48810 | -12.33401 | 37265 ft | 474 kts | 140° |
| 2026-04-27 02:37 | 58.43762 | -12.25039 | 37265 ft | 487 kts | 140° |
| 2026-04-27 02:38 | 58.38619 | -12.16547 | 37261 ft | 499 kts | 140° |
| 2026-04-27 02:38 | 58.33309 | -12.07837 | 37260 ft | 508 kts | 140° |
| 2026-04-27 02:39 | 58.27892 | -11.98987 | 37267 ft | 517 kts | 140° |
| 2026-04-27 02:39 | 58.22410 | -11.90058 | 37270 ft | 523 kts | 140° |
| 2026-04-27 02:40 | 58.16896 | -11.81134 | 37267 ft | 526 kts | 140° |
| 2026-04-27 02:40 | 58.11323 | -11.72133 | 37264 ft | 528 kts | 141° |
| 2026-04-27 02:41 | 58.05718 | -11.63127 | 37271 ft | 529 kts | 141° |
| 2026-04-27 02:41 | 58.00101 | -11.54129 | 37266 ft | 530 kts | 141° |
| 2026-04-27 02:42 | 57.94510 | -11.45219 | 37267 ft | 530 kts | 141° |
| 2026-04-27 02:42 | 57.88879 | -11.36282 | 37272 ft | 531 kts | 141° |
| 2026-04-27 02:43 | 57.83234 | -11.27358 | 37281 ft | 531 kts | 141° |
| 2026-04-27 02:43 | 57.77581 | -11.18465 | 37274 ft | 531 kts | 141° |
| 2026-04-27 02:44 | 57.71914 | -11.09595 | 37273 ft | 530 kts | 141° |
| 2026-04-27 02:44 | 57.66290 | -11.00818 | 37282 ft | 530 kts | 141° |
| 2026-04-27 02:45 | 57.60629 | -10.92021 | 37274 ft | 530 kts | 141° |
| 2026-04-27 02:45 | 57.54963 | -10.83253 | 37275 ft | 529 kts | 141° |
| 2026-04-27 02:46 | 57.49301 | -10.74520 | 37273 ft | 529 kts | 141° |
| 2026-04-27 02:46 | 57.43668 | -10.65874 | 37289 ft | 528 kts | 141° |
| 2026-04-27 02:47 | 57.37990 | -10.57199 | 37299 ft | 529 kts | 141° |
| 2026-04-27 02:47 | 57.32305 | -10.48549 | 37298 ft | 529 kts | 141° |
| 2026-04-27 02:48 | 57.26613 | -10.39921 | 37288 ft | 528 kts | 141° |
| 2026-04-27 02:48 | 57.20926 | -10.31324 | 37295 ft | 529 kts | 141° |
| 2026-04-27 02:49 | 57.15260 | -10.22805 | 37293 ft | 529 kts | 141° |
| 2026-04-27 02:49 | 57.09550 | -10.14244 | 37299 ft | 529 kts | 141° |
| 2026-04-27 02:50 | 57.03863 | -10.05642 | 37287 ft | 529 kts | 137° |
| 2026-04-27 02:50 | 57.01407 | -10.00642 | 37293 ft | 527 kts | 124° |
| 2026-04-27 02:50 | 56.99505 | -9.94929 | 37301 ft | 524 kts | 114° |
| 2026-04-27 02:51 | 56.98138 | -9.88809 | 37290 ft | 520 kts | 103° |
| 2026-04-27 02:51 | 56.97262 | -9.82406 | 37318 ft | 517 kts | 101° |
| 2026-04-27 02:51 | 56.95484 | -9.69711 | 37299 ft | 518 kts | 102° |
| 2026-04-27 02:52 | 56.93469 | -9.57033 | 37289 ft | 521 kts | 109° |
| 2026-04-27 02:52 | 56.91890 | -9.51089 | 37294 ft | 524 kts | 120° |
| 2026-04-27 02:52 | 56.89824 | -9.45588 | 37300 ft | 525 kts | 128° |
| 2026-04-27 02:53 | 56.84657 | -9.36161 | 37300 ft | 526 kts | 138° |
| 2026-04-27 02:53 | 56.79265 | -9.27122 | 37290 ft | 526 kts | 137° |
| 2026-04-27 02:54 | 56.73953 | -9.18062 | 37293 ft | 526 kts | 137° |
| 2026-04-27 02:54 | 56.68632 | -9.08932 | 37290 ft | 526 kts | 137° |
| 2026-04-27 02:55 | 56.63311 | -8.99828 | 37299 ft | 525 kts | 137° |
| 2026-04-27 02:55 | 56.57996 | -8.90777 | 37302 ft | 524 kts | 137° |
| 2026-04-27 02:56 | 56.52696 | -8.81795 | 37303 ft | 524 kts | 137° |
| 2026-04-27 02:56 | 56.47368 | -8.72807 | 37305 ft | 523 kts | 137° |
| 2026-04-27 02:57 | 56.42045 | -8.63859 | 37303 ft | 523 kts | 137° |
| 2026-04-27 02:57 | 56.36719 | -8.54938 | 37306 ft | 522 kts | 138° |
| 2026-04-27 02:58 | 56.31392 | -8.46052 | 37304 ft | 521 kts | 138° |
| 2026-04-27 02:58 | 56.26109 | -8.37281 | 37306 ft | 520 kts | 138° |
| 2026-04-27 02:59 | 56.20788 | -8.28487 | 37312 ft | 519 kts | 138° |
| 2026-04-27 02:59 | 56.15473 | -8.19726 | 37313 ft | 519 kts | 138° |
| 2026-04-27 03:00 | 56.10154 | -8.10992 | 37316 ft | 518 kts | 138° |
| 2026-04-27 03:00 | 56.04846 | -8.02311 | 37309 ft | 517 kts | 138° |
| 2026-04-27 03:01 | 55.99564 | -7.93712 | 37313 ft | 517 kts | 139° |
| 2026-04-27 03:01 | 55.94242 | -7.85079 | 37311 ft | 517 kts | 139° |
| 2026-04-27 03:02 | 55.88913 | -7.76465 | 37314 ft | 517 kts | 139° |
| 2026-04-27 03:02 | 55.83579 | -7.67878 | 37314 ft | 516 kts | 139° |
| 2026-04-27 03:03 | 55.75618 | -7.55124 | 37313 ft | 516 kts | 139° |
| 2026-04-27 03:04 | 55.70286 | -7.46623 | 37324 ft | 515 kts | 139° |
| 2026-04-27 03:04 | 55.64955 | -7.38157 | 37324 ft | 514 kts | 139° |
| 2026-04-27 03:05 | 55.59624 | -7.29722 | 37323 ft | 514 kts | 139° |
| 2026-04-27 03:05 | 55.54333 | -7.21380 | 37322 ft | 513 kts | 139° |
| 2026-04-27 03:06 | 55.49013 | -7.13025 | 37323 ft | 511 kts | 140° |
| 2026-04-27 03:06 | 55.43694 | -7.04704 | 37316 ft | 511 kts | 140° |
| 2026-04-27 03:07 | 55.38384 | -6.96426 | 37327 ft | 510 kts | 140° |
| 2026-04-27 03:07 | 55.33070 | -6.88174 | 37329 ft | 509 kts | 140° |
| 2026-04-27 03:08 | 55.27801 | -6.80026 | 37327 ft | 509 kts | 139° |
| 2026-04-27 03:08 | 55.22470 | -6.71810 | 37331 ft | 511 kts | 139° |
| 2026-04-27 03:09 | 55.17117 | -6.63588 | 37342 ft | 513 kts | 139° |
| 2026-04-27 03:09 | 55.11738 | -6.55359 | 37329 ft | 514 kts | 139° |
| 2026-04-27 03:10 | 55.06385 | -6.47197 | 37339 ft | 514 kts | 139° |
| 2026-04-27 03:10 | 55.00987 | -6.38999 | 37341 ft | 514 kts | 139° |
| 2026-04-27 03:11 | 54.95591 | -6.30835 | 37339 ft | 514 kts | 139° |
| 2026-04-27 03:11 | 54.91103 | -6.24067 | 37345 ft | 513 kts | 139° |
| 2026-04-27 03:12 | 54.85710 | -6.15961 | 37346 ft | 513 kts | 139° |
| 2026-04-27 03:12 | 54.79436 | -6.06570 | 37349 ft | 512 kts | 140° |
| 2026-04-27 03:13 | 54.74053 | -5.98544 | 37344 ft | 511 kts | 140° |
| 2026-04-27 03:13 | 54.69578 | -5.91894 | 37347 ft | 510 kts | 140° |
| 2026-04-27 03:14 | 54.64204 | -5.83934 | 37349 ft | 508 kts | 140° |
| 2026-04-27 03:14 | 54.58832 | -5.76004 | 37346 ft | 508 kts | 140° |
| 2026-04-27 03:15 | 54.52598 | -5.66840 | 37442 ft | 503 kts | 140° |
| 2026-04-27 03:15 | 54.50813 | -5.64226 | 37796 ft | 496 kts | 140° |
| 2026-04-27 03:15 | 54.48226 | -5.60438 | 38176 ft | 480 kts | 141° |
| 2026-04-27 03:15 | 54.45754 | -5.56823 | 38099 ft | 467 kts | 141° |
| 2026-04-27 03:16 | 54.43309 | -5.53254 | 37739 ft | 455 kts | 141° |
| 2026-04-27 03:16 | 54.40934 | -5.49794 | 37431 ft | 442 kts | 141° |
| 2026-04-27 03:16 | 54.38591 | -5.46385 | 37154 ft | 444 kts | 141° |
| 2026-04-27 03:16 | 54.36211 | -5.42930 | 36797 ft | 453 kts | 141° |
| 2026-04-27 03:17 | 54.33789 | -5.39421 | 36321 ft | 457 kts | 141° |
| 2026-04-27 03:17 | 54.31359 | -5.35902 | 35835 ft | 457 kts | 141° |
| 2026-04-27 03:17 | 54.28924 | -5.32382 | 35366 ft | 458 kts | 141° |
| 2026-04-27 03:17 | 54.26490 | -5.28869 | 34897 ft | 457 kts | 141° |
| 2026-04-27 03:18 | 54.24062 | -5.25369 | 34421 ft | 454 kts | 141° |
| 2026-04-27 03:18 | 54.21670 | -5.21924 | 33935 ft | 447 kts | 141° |
| 2026-04-27 03:18 | 54.19351 | -5.18592 | 33466 ft | 439 kts | 141° |
| 2026-04-27 03:18 | 54.17115 | -5.15384 | 33006 ft | 434 kts | 141° |
| 2026-04-27 03:19 | 54.14810 | -5.12081 | 32539 ft | 432 kts | 141° |
| 2026-04-27 03:19 | 54.12503 | -5.08777 | 32090 ft | 435 kts | 141° |
| 2026-04-27 03:19 | 54.10174 | -5.05451 | 31619 ft | 435 kts | 141° |
| 2026-04-27 03:19 | 54.07857 | -5.02146 | 31146 ft | 434 kts | 141° |
| 2026-04-27 03:20 | 54.05553 | -4.98860 | 30682 ft | 433 kts | 141° |
| 2026-04-27 03:20 | 54.03249 | -4.95575 | 30211 ft | 432 kts | 141° |
| 2026-04-27 03:20 | 54.00945 | -4.92301 | 29735 ft | 430 kts | 142° |
| 2026-04-27 03:20 | 53.98686 | -4.89102 | 29270 ft | 428 kts | 142° |
| 2026-04-27 03:21 | 53.96513 | -4.85658 | 28766 ft | 428 kts | 131° |
| 2026-04-27 03:21 | 53.94746 | -4.81621 | 28331 ft | 425 kts | 126° |
| 2026-04-27 03:21 | 53.93066 | -4.77525 | 27836 ft | 417 kts | 126° |
| 2026-04-27 03:21 | 53.91408 | -4.73548 | 27351 ft | 408 kts | 127° |
| 2026-04-27 03:22 | 53.89763 | -4.69684 | 26878 ft | 401 kts | 128° |
| 2026-04-27 03:22 | 53.88132 | -4.65908 | 26386 ft | 394 kts | 128° |
| 2026-04-27 03:22 | 53.86518 | -4.62202 | 25909 ft | 387 kts | 128° |
| 2026-04-27 03:22 | 53.84929 | -4.58573 | 25432 ft | 381 kts | 128° |
| 2026-04-27 03:23 | 53.83355 | -4.54992 | 24954 ft | 377 kts | 128° |
| 2026-04-27 03:23 | 53.81942 | -4.51340 | 24465 ft | 375 kts | 118° |
| 2026-04-27 03:23 | 53.80947 | -4.47247 | 24023 ft | 378 kts | 106° |
| 2026-04-27 03:23 | 53.80302 | -4.42925 | 23565 ft | 380 kts | 104° |
| 2026-04-27 03:24 | 53.79677 | -4.38576 | 23094 ft | 381 kts | 104° |
| 2026-04-27 03:24 | 53.79048 | -4.34217 | 22624 ft | 382 kts | 104° |
| 2026-04-27 03:24 | 53.78414 | -4.29859 | 22151 ft | 382 kts | 104° |
| 2026-04-27 03:24 | 53.77775 | -4.25501 | 21679 ft | 382 kts | 104° |
| 2026-04-27 03:25 | 53.77132 | -4.21144 | 21209 ft | 382 kts | 104° |
| 2026-04-27 03:25 | 53.76486 | -4.16787 | 20735 ft | 382 kts | 104° |
| 2026-04-27 03:25 | 53.75847 | -4.12499 | 20268 ft | 381 kts | 104° |
| 2026-04-27 03:25 | 53.75199 | -4.08163 | 19796 ft | 381 kts | 104° |
| 2026-04-27 03:26 | 53.74548 | -4.03830 | 19323 ft | 380 kts | 104° |
| 2026-04-27 03:26 | 53.73897 | -3.99506 | 18849 ft | 379 kts | 104° |
| 2026-04-27 03:26 | 53.73246 | -3.95189 | 18376 ft | 379 kts | 104° |
| 2026-04-27 03:26 | 53.72595 | -3.90888 | 17903 ft | 378 kts | 104° |
| 2026-04-27 03:27 | 53.71950 | -3.86644 | 17433 ft | 368 kts | 104° |
| 2026-04-27 03:27 | 53.71324 | -3.82534 | 16999 ft | 358 kts | 104° |
| 2026-04-27 03:27 | 53.70726 | -3.78618 | 16570 ft | 349 kts | 104° |
| 2026-04-27 03:27 | 53.70127 | -3.74702 | 16158 ft | 341 kts | 105° |
| 2026-04-27 03:28 | 53.69548 | -3.70925 | 15782 ft | 332 kts | 105° |
| 2026-04-27 03:28 | 53.68976 | -3.67188 | 15398 ft | 325 kts | 105° |
| 2026-04-27 03:28 | 53.68412 | -3.63528 | 15036 ft | 325 kts | 105° |
| 2026-04-27 03:28 | 53.67840 | -3.59827 | 14675 ft | 327 kts | 105° |
| 2026-04-27 03:29 | 53.67263 | -3.56098 | 14310 ft | 329 kts | 105° |
| 2026-04-27 03:29 | 53.66686 | -3.52365 | 13935 ft | 328 kts | 105° |
| 2026-04-27 03:29 | 53.66119 | -3.48658 | 13625 ft | 325 kts | 105° |
| 2026-04-27 03:29 | 53.65545 | -3.44988 | 13325 ft | 322 kts | 105° |
| 2026-04-27 03:30 | 53.64974 | -3.41352 | 13020 ft | 320 kts | 105° |
| 2026-04-27 03:30 | 53.64407 | -3.37737 | 12717 ft | 317 kts | 105° |
| 2026-04-27 03:30 | 53.63852 | -3.34204 | 12422 ft | 315 kts | 105° |
| 2026-04-27 03:30 | 53.63295 | -3.30657 | 12124 ft | 312 kts | 105° |
| 2026-04-27 03:31 | 53.62740 | -3.27131 | 11825 ft | 310 kts | 105° |
| 2026-04-27 03:31 | 53.62189 | -3.23635 | 11523 ft | 308 kts | 105° |
| 2026-04-27 03:31 | 53.61640 | -3.20163 | 11222 ft | 306 kts | 105° |
| 2026-04-27 03:31 | 53.61095 | -3.16717 | 10918 ft | 303 kts | 106° |
| 2026-04-27 03:32 | 53.60552 | -3.13295 | 10618 ft | 301 kts | 106° |
| 2026-04-27 03:32 | 53.60013 | -3.09904 | 10323 ft | 299 kts | 106° |
| 2026-04-27 03:32 | 53.59479 | -3.06533 | 10083 ft | 296 kts | 105° |
| 2026-04-27 03:32 | 53.59075 | -3.03213 | 9845 ft | 292 kts | 100° |
| 2026-04-27 03:33 | 53.58756 | -2.99869 | 9604 ft | 288 kts | 99° |
| 2026-04-27 03:33 | 53.58455 | -2.96574 | 9392 ft | 284 kts | 99° |
| 2026-04-27 03:33 | 53.58154 | -2.93310 | 9173 ft | 280 kts | 99° |
| 2026-04-27 03:33 | 53.57851 | -2.90091 | 8967 ft | 278 kts | 99° |
| 2026-04-27 03:34 | 53.57553 | -2.86971 | 8760 ft | 277 kts | 100° |
| 2026-04-27 03:34 | 53.57245 | -2.83787 | 8539 ft | 275 kts | 100° |
| 2026-04-27 03:34 | 53.56936 | -2.80620 | 8333 ft | 274 kts | 100° |
| 2026-04-27 03:34 | 53.56625 | -2.77467 | 8118 ft | 273 kts | 100° |
| 2026-04-27 03:35 | 53.56314 | -2.74332 | 7918 ft | 272 kts | 100° |
| 2026-04-27 03:35 | 53.56005 | -2.71240 | 7709 ft | 271 kts | 100° |
| 2026-04-27 03:35 | 53.55693 | -2.68126 | 7499 ft | 270 kts | 100° |
| 2026-04-27 03:35 | 53.55380 | -2.65011 | 7312 ft | 270 kts | 100° |
| 2026-04-27 03:36 | 53.55067 | -2.61903 | 7111 ft | 268 kts | 100° |
| 2026-04-27 03:36 | 53.54757 | -2.58844 | 6926 ft | 262 kts | 100° |
| 2026-04-27 03:36 | 53.54457 | -2.55887 | 6734 ft | 251 kts | 100° |
| 2026-04-27 03:36 | 53.54167 | -2.53026 | 6558 ft | 247 kts | 100° |
| 2026-04-27 03:37 | 53.53881 | -2.50226 | 6348 ft | 245 kts | 100° |
| 2026-04-27 03:37 | 53.53593 | -2.47412 | 6165 ft | 244 kts | 100° |
| 2026-04-27 03:37 | 53.53305 | -2.44602 | 5994 ft | 242 kts | 101° |
| 2026-04-27 03:37 | 53.53023 | -2.41831 | 5838 ft | 240 kts | 101° |
| 2026-04-27 03:38 | 53.52739 | -2.39076 | 5676 ft | 239 kts | 101° |
| 2026-04-27 03:38 | 53.52452 | -2.36299 | 5545 ft | 244 kts | 101° |
| 2026-04-27 03:38 | 53.52161 | -2.33480 | 5385 ft | 243 kts | 101° |
| 2026-04-27 03:38 | 53.51877 | -2.30739 | 5201 ft | 233 kts | 101° |
| 2026-04-27 03:39 | 53.51606 | -2.28125 | 5022 ft | 221 kts | 101° |
| 2026-04-27 03:39 | 53.51345 | -2.25624 | 4865 ft | 216 kts | 101° |
| 2026-04-27 03:39 | 53.51090 | -2.23168 | 4723 ft | 215 kts | 101° |
| 2026-04-27 03:39 | 53.50833 | -2.20695 | 4572 ft | 214 kts | 101° |
| 2026-04-27 03:40 | 53.50576 | -2.18235 | 4423 ft | 213 kts | 100° |
| 2026-04-27 03:40 | 53.50322 | -2.15784 | 4269 ft | 212 kts | 101° |
| 2026-04-27 03:40 | 53.50061 | -2.13359 | 4123 ft | 211 kts | 101° |
| 2026-04-27 03:40 | 53.49807 | -2.10938 | 3962 ft | 208 kts | 101° |
| 2026-04-27 03:41 | 53.49365 | -2.08696 | 3860 ft | 199 kts | 120° |
| 2026-04-27 03:41 | 53.48492 | -2.06908 | 3772 ft | 197 kts | 141° |
| 2026-04-27 03:41 | 53.47398 | -2.05538 | 3559 ft | 195 kts | 153° |
| 2026-04-27 03:41 | 53.46119 | -2.04878 | 3375 ft | 196 kts | 180° |
| 2026-04-27 03:42 | 53.44886 | -2.05511 | 3091 ft | 188 kts | 223° |
| 2026-04-27 03:42 | 53.44107 | -2.07294 | 2643 ft | 190 kts | 245° |
| 2026-04-27 03:42 | 53.43595 | -2.09265 | 2346 ft | 180 kts | 251° |
| 2026-04-27 03:42 | 53.43189 | -2.11179 | 2083 ft | 170 kts | 253° |
| 2026-04-27 03:43 | 53.42804 | -2.12933 | 1938 ft | 150 kts | 243° |
| 2026-04-27 03:43 | 53.42166 | -2.14220 | 1739 ft | 142 kts | 229° |
| 2026-04-27 03:43 | 53.41462 | -2.15455 | 1587 ft | 153 kts | 226° |
| 2026-04-27 03:43 | 53.40685 | -2.16688 | 1645 ft | 154 kts | 225° |
| 2026-04-27 03:44 | 53.39992 | -2.18006 | 1619 ft | 151 kts | 233° |
| 2026-04-27 03:44 | 53.39345 | -2.19402 | 1409 ft | 153 kts | 235° |
| 2026-04-27 03:44 | 53.38641 | -2.20751 | 1158 ft | 151 kts | 230° |
| 2026-04-27 03:44 | 53.37997 | -2.22098 | 958 ft | 148 kts | 234° |
| 2026-04-27 03:45 | 53.37343 | -2.23429 | 736 ft | 148 kts | 232° |
| 2026-04-27 03:45 | 53.36699 | -2.24783 | 471 ft | 147 kts | 231° |
| 2026-04-27 03:45 | 53.36049 | -2.26102 | 285 ft | 143 kts | 234° |
| 2026-04-27 03:45 | 53.35478 | -2.27275 | 248 ft | 99 kts | 230° |
| 2026-04-27 03:46 | 53.35264 | -2.27803 | 236 ft | 41 kts | 258° |
| 2026-04-27 03:46 | 53.35238 | -2.28091 | 230 ft | 10 kts | 261° |
| 2026-04-27 03:46 | 53.35251 | -2.28191 | 230 ft | 10 kts | 336° |
| 2026-04-27 03:46 | 53.35315 | -2.28192 | 232 ft | 9 kts | 7° |
| 2026-04-27 03:47 | 53.35378 | -2.28175 | 236 ft | 9 kts | 12° |
| 2026-04-27 03:47 | 53.35474 | -2.28132 | 234 ft | 23 kts | 24° |
| 2026-04-27 03:47 | 53.35607 | -2.27943 | 238 ft | 25 kts | 42° |
| 2026-04-27 03:47 | 53.35765 | -2.27873 | 247 ft | 23 kts | 6° |
| 2026-04-27 03:48 | 53.35922 | -2.27848 | 254 ft | 22 kts | 354° |
| 2026-04-27 03:48 | 53.36051 | -2.27984 | 254 ft | 22 kts | 320° |
| 2026-04-27 03:48 | 53.36158 | -2.28151 | 254 ft | 21 kts | 316° |
| 2026-04-27 03:48 | 53.36261 | -2.28324 | 254 ft | 21 kts | 313° |
| 2026-04-27 03:49 | 53.36340 | -2.28456 | 254 ft | 13 kts | 329° |
| 2026-04-27 03:49 | 53.36423 | -2.28507 | 254 ft | 13 kts | 319° |
| 2026-04-27 03:49 | 53.36487 | -2.28604 | 254 ft | 12 kts | 317° |
| 2026-04-27 03:49 | 53.36548 | -2.28702 | 254 ft | 12 kts | 314° |
| 2026-04-27 03:50 | 53.36612 | -2.28783 | 254 ft | 11 kts | 354° |
| 2026-04-27 03:50 | 53.36629 | -2.28704 | 254 ft | 10 kts | 145° |
| 2026-04-27 03:50 | 53.36595 | -2.28656 | 254 ft | 4 kts | 136° |
| 2026-04-27 03:50 | 53.36590 | -2.28647 | 254 ft | 0 kts | 136° |
| 2026-04-27 03:51 | 53.36589 | -2.28645 | 254 ft | 0 kts | 136° |
| 2026-04-27 03:51 | 53.36587 | -2.28642 | 254 ft | 0 kts | 134° |